createdAt,value
2023-03-12T00:02:22.486Z,1.90
2023-03-12T00:04:50.580Z,2.07
2023-03-12T00:07:18.279Z,1.80
2023-03-12T00:09:46.681Z,2.47
2023-03-12T00:12:14.412Z,2.33
2023-03-12T00:14:43.716Z,2.13
2023-03-12T00:17:12.028Z,2.50
2023-03-12T00:19:39.849Z,2.37
2023-03-12T00:22:07.684Z,2.43
2023-03-12T00:24:35.359Z,2.53
2023-03-12T00:27:03.226Z,3.00
2023-03-12T00:29:30.893Z,2.80
2023-03-12T00:32:00.406Z,3.23
2023-03-12T00:34:28.359Z,3.10
2023-03-12T00:36:56.197Z,3.40
2023-03-12T00:39:23.984Z,2.80
2023-03-12T00:41:51.905Z,3.37
2023-03-12T00:44:19.771Z,3.47
2023-03-12T00:46:47.595Z,2.93
2023-03-12T00:49:16.838Z,3.30
2023-03-12T00:51:44.589Z,3.33
2023-03-12T00:54:12.558Z,3.03
2023-03-12T00:56:40.475Z,3.20
2023-03-12T00:59:08.215Z,3.43
2023-03-12T01:01:35.973Z,3.37
2023-03-12T01:04:03.970Z,3.33
2023-03-12T01:06:33.164Z,3.47
2023-03-12T01:09:02.338Z,3.30
2023-03-12T01:11:31.019Z,3.50
2023-03-12T01:13:59.018Z,3.53
2023-03-12T01:16:32.313Z,3.40
2023-03-12T01:19:01.437Z,1.63
2023-03-12T01:21:29.753Z,3.47
2023-03-12T01:24:00.316Z,3.10
2023-03-12T01:26:28.260Z,3.27
2023-03-12T01:28:56.026Z,3.17
2023-03-12T01:31:23.948Z,3.63
2023-03-12T01:33:52.668Z,3.30
2023-03-12T01:36:21.825Z,3.60
2023-03-12T01:38:51.415Z,3.73
2023-03-12T01:41:21.105Z,3.20
2023-03-12T01:43:49.150Z,3.50
2023-03-12T01:46:25.454Z,2.90
2023-03-12T01:48:58.887Z,3.30
2023-03-12T01:51:28.320Z,2.97
2023-03-12T01:53:57.970Z,3.37
2023-03-12T01:56:28.450Z,3.80
2023-03-12T01:58:57.188Z,3.93
2023-03-12T02:01:27.392Z,3.53
2023-03-12T02:03:55.367Z,3.17
2023-03-12T02:06:26.094Z,3.80
2023-03-12T02:08:54.453Z,2.97
2023-03-12T02:11:29.221Z,3.30
2023-03-12T02:13:58.914Z,3.53
2023-03-12T02:16:27.274Z,2.93
2023-03-12T02:18:55.929Z,2.70
2023-03-12T02:21:25.592Z,3.50
2023-03-12T02:23:56.828Z,3.13
2023-03-12T02:26:27.568Z,3.60
2023-03-12T02:28:55.860Z,3.40
2023-03-12T02:31:26.497Z,2.23
2023-03-12T02:33:56.169Z,3.20
2023-03-12T02:36:24.035Z,3.23
2023-03-12T02:38:52.863Z,3.13
2023-03-12T02:41:22.568Z,2.77
2023-03-12T02:43:58.282Z,3.10
2023-03-12T02:46:26.703Z,2.70
2023-03-12T02:48:54.966Z,2.53
2023-03-12T02:51:22.850Z,3.00
2023-03-12T02:53:55.120Z,2.30
2023-03-12T02:56:23.646Z,3.10
2023-03-12T02:58:53.827Z,2.37
2023-03-12T03:01:21.959Z,2.70
2023-03-12T03:03:49.941Z,3.47
2023-03-12T03:06:18.541Z,2.70
2023-03-12T03:08:48.893Z,2.63
2023-03-12T03:11:16.640Z,2.77
2023-03-12T03:13:44.396Z,2.90
2023-03-12T03:16:14.190Z,3.20
2023-03-12T03:18:42.624Z,3.03
2023-03-12T03:21:14.613Z,3.27
2023-03-12T03:23:42.289Z,3.03
2023-03-12T03:26:10.086Z,3.30
2023-03-12T03:28:38.048Z,2.13
2023-03-12T03:31:06.404Z,3.13
2023-03-12T03:33:36.900Z,2.90
2023-03-12T03:36:05.938Z,3.00
2023-03-12T03:38:35.113Z,3.20
2023-03-12T03:41:03.447Z,2.87
2023-03-12T03:43:32.208Z,2.77
2023-03-12T03:46:00.724Z,2.67
2023-03-12T03:48:28.900Z,2.30
2023-03-12T03:51:00.725Z,2.63
2023-03-12T03:53:28.474Z,2.63
2023-03-12T03:55:56.372Z,2.43
2023-03-12T03:58:24.301Z,2.70
2023-03-12T04:00:52.475Z,2.33
2023-03-12T04:03:20.377Z,2.60
2023-03-12T04:05:48.279Z,2.77
2023-03-12T04:08:17.433Z,2.80
2023-03-12T04:10:45.266Z,2.40
2023-03-12T04:13:13.210Z,1.90
2023-03-12T04:15:47.648Z,2.13
2023-03-12T04:18:15.787Z,2.30
2023-03-12T04:20:44.815Z,2.20
2023-03-12T04:23:13.177Z,2.27
2023-03-12T04:25:42.252Z,2.03
2023-03-12T04:28:10.189Z,1.97
2023-03-12T04:30:38.450Z,1.90
2023-03-12T04:33:06.324Z,1.90
2023-03-12T04:35:34.266Z,1.80
2023-03-12T04:38:02.531Z,1.40
2023-03-12T04:40:30.300Z,1.80
2023-03-12T04:43:00.118Z,1.50
2023-03-12T04:45:28.101Z,2.00
2023-03-12T04:47:56.132Z,2.00
2023-03-12T04:50:23.791Z,1.80
2023-03-12T04:52:51.722Z,1.67
2023-03-12T04:55:19.628Z,2.20
2023-03-12T04:57:47.276Z,2.03
2023-03-12T05:00:17.797Z,2.10
2023-03-12T05:02:45.459Z,1.80
2023-03-12T05:05:13.535Z,1.87
2023-03-12T05:07:41.722Z,2.20
2023-03-12T05:10:09.953Z,1.87
2023-03-12T05:12:38.008Z,1.83
2023-03-12T05:15:06.141Z,2.07
2023-03-12T05:17:35.820Z,1.80
2023-03-12T05:20:04.231Z,2.17
2023-03-12T05:22:32.745Z,2.13
2023-03-12T05:25:00.535Z,2.03
2023-03-12T05:27:30.210Z,1.97
2023-03-12T05:29:59.693Z,2.00
2023-03-12T05:32:29.154Z,2.40
2023-03-12T05:34:58.278Z,1.87
2023-03-12T05:37:26.105Z,1.57
2023-03-12T05:39:55.141Z,1.97
2023-03-12T05:42:22.873Z,1.80
2023-03-12T05:44:51.677Z,1.70
2023-03-12T05:47:19.649Z,1.30
2023-03-12T05:49:47.838Z,1.60
2023-03-12T05:52:16.941Z,1.60
2023-03-12T05:54:44.635Z,1.83
2023-03-12T05:57:12.595Z,1.40
2023-03-12T05:59:40.444Z,1.87
2023-03-12T06:02:08.271Z,2.03
2023-03-12T06:04:36.437Z,1.50
2023-03-12T06:07:04.439Z,1.80
2023-03-12T06:09:34.169Z,1.80
2023-03-12T06:12:02.106Z,1.37
2023-03-12T06:14:30.092Z,1.53
2023-03-12T06:16:57.972Z,1.73
2023-03-12T06:19:26.108Z,1.50
2023-03-12T06:21:53.936Z,1.57
2023-03-12T06:24:21.602Z,1.57
2023-03-12T06:26:50.995Z,1.40
2023-03-12T06:29:19.211Z,1.57
2023-03-12T06:31:48.435Z,1.60
2023-03-12T06:34:16.982Z,1.60
2023-03-12T06:36:44.928Z,1.60
2023-03-12T06:39:12.677Z,1.40
2023-03-12T06:41:41.753Z,1.70
2023-03-12T06:44:11.098Z,1.93
2023-03-12T06:46:39.299Z,1.73
2023-03-12T06:49:07.205Z,1.40
2023-03-12T06:51:34.851Z,1.63
2023-03-12T06:54:03.028Z,1.83
2023-03-12T06:56:31.392Z,2.20
2023-03-12T06:58:59.401Z,1.70
2023-03-12T07:01:28.613Z,1.27
2023-03-12T07:03:56.379Z,2.00
2023-03-12T07:06:24.512Z,1.60
2023-03-12T07:08:52.555Z,1.63
2023-03-12T07:11:20.269Z,1.53
2023-03-12T07:13:48.426Z,1.30
2023-03-12T07:16:16.885Z,1.57
2023-03-12T07:18:45.939Z,1.23
2023-03-12T07:21:22.661Z,1.60
2023-03-12T07:23:51.018Z,1.80
2023-03-12T07:26:18.866Z,1.50
2023-03-12T07:28:46.748Z,1.60
2023-03-12T07:31:14.809Z,1.53
2023-03-12T07:33:43.080Z,2.00
2023-03-12T07:36:12.584Z,1.70
2023-03-12T07:38:40.571Z,1.57
2023-03-12T07:41:08.337Z,1.30
2023-03-12T07:43:36.142Z,1.73
2023-03-12T07:46:05.494Z,1.50
2023-03-12T07:48:33.338Z,1.90
2023-03-12T07:51:01.171Z,1.60
2023-03-12T07:53:30.320Z,1.63
2023-03-12T07:55:58.122Z,0.90
2023-03-12T07:58:26.083Z,1.87
2023-03-12T08:00:56.109Z,1.50
2023-03-12T08:03:24.390Z,1.67
2023-03-12T08:05:59.294Z,1.70
2023-03-12T08:08:27.128Z,1.60
2023-03-12T08:10:56.873Z,1.90
2023-03-12T08:13:24.954Z,2.00
2023-03-12T08:15:54.097Z,1.87
2023-03-12T08:18:23.179Z,1.30
2023-03-12T08:20:51.800Z,2.00
2023-03-12T08:23:21.417Z,2.20
2023-03-12T08:25:49.975Z,2.10
2023-03-12T08:28:19.464Z,1.93
2023-03-12T08:30:48.616Z,2.33
2023-03-12T08:33:16.718Z,1.53
2023-03-12T08:35:44.615Z,2.53
2023-03-12T08:38:12.395Z,2.00
2023-03-12T08:40:40.640Z,1.33
2023-03-12T08:43:08.992Z,2.43
2023-03-12T08:45:38.573Z,3.03
2023-03-12T08:48:07.039Z,2.33
2023-03-12T08:50:34.735Z,2.10
2023-03-12T08:53:02.785Z,2.07
2023-03-12T08:55:30.698Z,3.03
2023-03-12T08:57:58.601Z,2.33
2023-03-12T09:00:26.777Z,1.90
2023-03-12T09:02:58.409Z,1.53
2023-03-12T09:05:26.254Z,2.07
2023-03-12T09:07:54.614Z,2.33
2023-03-12T09:10:22.744Z,1.87
2023-03-12T09:12:50.496Z,2.40
2023-03-12T09:15:18.477Z,2.30
2023-03-12T09:17:54.175Z,2.43
2023-03-12T09:20:23.804Z,2.90
2023-03-12T09:22:51.917Z,2.10
2023-03-12T09:25:20.193Z,2.27
2023-03-12T09:27:49.136Z,1.73
2023-03-12T09:30:18.361Z,1.90
2023-03-12T09:32:46.503Z,1.67
2023-03-12T09:35:14.559Z,2.13
2023-03-12T09:37:43.793Z,2.10
2023-03-12T09:40:17.429Z,1.70
2023-03-12T09:42:48.230Z,1.87
2023-03-12T09:45:18.216Z,2.47
2023-03-12T09:47:48.718Z,2.07
2023-03-12T09:50:22.772Z,2.33
2023-03-12T09:52:54.726Z,1.93
2023-03-12T09:55:23.304Z,2.30
2023-03-12T09:57:52.899Z,2.40
2023-03-12T10:00:21.949Z,2.40
2023-03-12T10:03:17.004Z,2.20
2023-03-12T10:05:51.132Z,2.57
2023-03-12T10:08:30.525Z,2.17
2023-03-12T10:11:03.861Z,1.70
2023-03-12T10:13:42.050Z,1.70
2023-03-12T10:16:15.565Z,1.50
2023-03-12T10:18:55.707Z,1.30
2023-03-12T10:21:26.674Z,1.83
2023-03-12T10:24:04.345Z,1.60
2023-03-12T10:26:35.958Z,1.20
2023-03-12T10:29:07.692Z,1.93
2023-03-12T10:31:38.103Z,2.40
2023-03-12T10:34:14.621Z,2.00
2023-03-12T10:36:42.793Z,2.53
2023-03-12T10:39:15.361Z,2.10
2023-03-12T10:41:44.680Z,1.87
2023-03-12T10:44:17.299Z,3.33
2023-03-12T10:46:51.677Z,1.37
2023-03-12T10:49:24.624Z,2.00
2023-03-12T10:51:55.944Z,2.67
2023-03-12T10:54:28.490Z,1.90
2023-03-12T10:56:56.548Z,2.80
2023-03-12T10:59:26.964Z,1.67
2023-03-12T11:01:54.782Z,2.07
2023-03-12T11:04:24.527Z,1.83
2023-03-12T11:07:10.994Z,2.10
2023-03-12T11:09:40.130Z,1.80
2023-03-12T11:12:23.618Z,1.70
2023-03-12T11:14:51.914Z,1.83
2023-03-12T11:17:24.138Z,1.60
2023-03-12T11:19:53.001Z,1.87
2023-03-12T11:22:32.476Z,2.17
2023-03-12T11:25:02.986Z,1.70
2023-03-12T11:27:38.597Z,1.97
2023-03-12T11:30:07.435Z,1.33
2023-03-12T11:32:37.407Z,1.80
2023-03-12T11:35:10.548Z,1.47
2023-03-12T11:37:43.009Z,2.00
2023-03-12T11:40:20.282Z,1.80
2023-03-12T11:42:54.316Z,2.00
2023-03-12T11:45:26.016Z,1.87
2023-03-12T11:47:58.710Z,1.77
2023-03-12T11:50:29.873Z,1.93
2023-03-12T11:53:10.521Z,2.53
2023-03-12T11:55:48.770Z,3.33
2023-03-12T11:58:28.050Z,1.90
2023-03-12T12:01:00.795Z,2.37
2023-03-12T12:03:39.576Z,2.00
2023-03-12T12:06:09.102Z,1.90
2023-03-12T12:08:43.279Z,2.07
2023-03-12T12:11:15.708Z,1.80
2023-03-12T12:13:49.481Z,2.47
2023-03-12T12:16:24.223Z,3.07
2023-03-12T12:18:58.645Z,2.70
2023-03-12T12:21:41.756Z,1.73
2023-03-12T12:24:17.048Z,1.73
2023-03-12T12:26:51.108Z,1.63
2023-03-12T12:29:27.066Z,1.80
2023-03-12T12:31:56.246Z,1.80
2023-03-12T12:34:30.789Z,2.00
2023-03-12T12:37:16.701Z,2.33
2023-03-12T12:39:47.090Z,2.57
2023-03-12T12:42:19.157Z,2.37
2023-03-12T12:44:49.389Z,3.20
2023-03-12T12:47:19.764Z,1.80
2023-03-12T12:49:49.165Z,2.00
2023-03-12T12:52:20.208Z,2.50
2023-03-12T12:54:55.058Z,1.90
2023-03-12T12:57:28.489Z,2.47
2023-03-12T13:00:03.810Z,1.60
2023-03-12T13:02:36.487Z,2.03
2023-03-12T13:05:04.797Z,1.80
2023-03-12T13:07:35.291Z,1.97
2023-03-12T13:10:06.682Z,1.70
2023-03-12T13:12:38.792Z,2.10
2023-03-12T13:15:34.087Z,1.90
2023-03-12T13:18:11.181Z,2.10
2023-03-12T13:20:44.477Z,1.90
2023-03-12T13:23:33.951Z,1.80
2023-03-12T13:26:04.799Z,1.37
2023-03-12T13:28:36.404Z,1.87
2023-03-12T13:31:05.314Z,2.03
2023-03-12T13:33:41.827Z,1.60
2023-03-12T13:36:23.933Z,1.70
2023-03-12T13:38:56.569Z,1.87
2023-03-12T13:41:35.295Z,1.90
2023-03-12T13:44:18.574Z,1.73
2023-03-12T13:46:48.051Z,1.70
2023-03-12T13:49:20.123Z,1.63
2023-03-12T13:51:53.536Z,2.13
2023-03-12T13:54:24.547Z,3.17
2023-03-12T13:56:56.521Z,2.13
2023-03-12T13:59:25.579Z,1.30
2023-03-12T14:01:58.360Z,1.93
2023-03-12T14:04:30.465Z,1.30
2023-03-12T14:07:03.280Z,1.80
2023-03-12T14:09:35.889Z,1.80
2023-03-12T14:12:07.259Z,1.90
2023-03-12T14:14:44.644Z,2.60
2023-03-12T14:17:19.208Z,2.37
2023-03-12T14:19:49.060Z,5.23
2023-03-12T14:22:22.646Z,2.13
2023-03-12T14:24:51.773Z,1.90
2023-03-12T14:27:21.280Z,1.87
2023-03-12T14:29:53.669Z,1.90
2023-03-12T14:32:24.600Z,1.90
2023-03-12T14:34:54.817Z,2.27
2023-03-12T14:37:25.474Z,2.10
2023-03-12T14:39:55.874Z,2.50
2023-03-12T14:42:26.291Z,2.00
2023-03-12T14:44:59.682Z,3.10
2023-03-12T14:47:29.164Z,2.00
2023-03-12T14:49:57.698Z,2.53
2023-03-12T14:52:26.091Z,1.60
2023-03-12T14:54:54.256Z,1.83
2023-03-12T14:57:24.647Z,1.53
2023-03-12T14:59:56.211Z,2.10
2023-03-12T15:02:24.243Z,2.50
2023-03-12T15:04:56.930Z,1.73
2023-03-12T15:07:28.322Z,1.70
2023-03-12T15:09:56.204Z,2.10
2023-03-12T15:12:25.549Z,1.63
2023-03-12T15:14:54.668Z,1.80
2023-03-12T15:17:24.232Z,1.60
2023-03-12T15:19:57.417Z,1.87
2023-03-12T15:22:27.805Z,1.23
2023-03-12T15:24:55.827Z,1.70
2023-03-12T15:27:32.903Z,1.60
2023-03-12T15:30:02.235Z,2.13
2023-03-12T15:32:32.225Z,4.27
2023-03-12T15:35:12.594Z,3.00
2023-03-12T15:37:41.375Z,1.70
2023-03-12T15:40:18.966Z,1.80
2023-03-12T15:42:48.452Z,1.63
2023-03-12T15:45:20.941Z,1.97
2023-03-12T15:47:49.678Z,2.03
2023-03-12T15:50:21.931Z,2.00
2023-03-12T15:53:02.551Z,2.20
2023-03-12T15:55:30.763Z,2.30
2023-03-12T15:57:59.039Z,1.90
2023-03-12T16:00:27.944Z,3.37
2023-03-12T16:02:56.825Z,1.63
2023-03-12T16:05:26.780Z,1.80
2023-03-12T16:07:55.197Z,1.30
2023-03-12T16:10:24.329Z,2.10
2023-03-12T16:12:53.936Z,2.17
2023-03-12T16:15:24.188Z,2.27
2023-03-12T16:17:52.081Z,2.30
2023-03-12T16:20:20.269Z,2.23
2023-03-12T16:22:49.929Z,2.10
2023-03-12T16:25:17.797Z,1.33
2023-03-12T16:27:47.372Z,1.90
2023-03-12T16:30:16.758Z,2.60
2023-03-12T16:32:45.095Z,1.90
2023-03-12T16:35:14.777Z,2.60
2023-03-12T16:37:42.546Z,3.70
2023-03-12T16:40:16.300Z,2.87
2023-03-12T16:42:51.076Z,1.77
2023-03-12T16:45:19.553Z,1.90
2023-03-12T16:47:51.176Z,2.13
2023-03-12T16:50:19.873Z,2.70
2023-03-12T16:52:48.255Z,3.10
2023-03-12T16:55:18.986Z,2.43
2023-03-12T16:57:48.296Z,2.53
2023-03-12T17:00:17.697Z,2.97
2023-03-12T17:02:45.658Z,1.90
2023-03-12T17:05:13.814Z,2.30
2023-03-12T17:07:41.593Z,4.07
2023-03-12T17:10:10.637Z,3.70
2023-03-12T17:12:40.609Z,3.53
2023-03-12T17:15:13.178Z,3.13
2023-03-12T17:17:41.398Z,3.10
2023-03-12T17:20:11.952Z,4.20
2023-03-12T17:22:39.748Z,2.63
2023-03-12T17:25:07.998Z,1.60
2023-03-12T17:27:35.999Z,2.80
2023-03-12T17:30:05.915Z,2.90
2023-03-12T17:32:33.666Z,2.97
2023-03-12T17:35:03.631Z,2.90
2023-03-12T17:37:32.391Z,3.13
2023-03-12T17:40:01.736Z,3.10
2023-03-12T17:42:30.501Z,2.83
2023-03-12T17:44:59.099Z,3.20
2023-03-12T17:47:30.821Z,2.90
2023-03-12T17:50:00.351Z,3.33
2023-03-12T17:52:28.300Z,2.93
2023-03-12T17:54:56.057Z,2.60
2023-03-12T17:57:25.130Z,2.80
2023-03-12T17:59:53.361Z,3.23
2023-03-12T18:02:21.492Z,2.70
2023-03-12T18:04:50.933Z,3.10
2023-03-12T18:07:18.608Z,3.53
2023-03-12T18:09:46.436Z,3.80
2023-03-12T18:12:14.449Z,4.27
2023-03-12T18:14:42.259Z,3.63
2023-03-12T18:17:10.697Z,3.53
2023-03-12T18:19:38.562Z,3.67
2023-03-12T18:22:08.371Z,4.23
2023-03-12T18:24:36.200Z,4.07
2023-03-12T18:27:04.359Z,3.93
2023-03-12T18:29:32.129Z,4.10
2023-03-12T18:32:01.176Z,4.10
2023-03-12T18:34:29.041Z,3.63
2023-03-12T18:36:56.816Z,4.00
2023-03-12T18:39:26.081Z,4.70
2023-03-12T18:41:55.796Z,3.20
2023-03-12T18:44:23.827Z,4.13
2023-03-12T18:46:52.093Z,4.60
2023-03-12T18:49:20.127Z,4.43
2023-03-12T18:51:48.197Z,3.57
2023-03-12T18:54:17.775Z,4.30
2023-03-12T18:56:47.336Z,5.60
2023-03-12T18:59:15.111Z,5.40
2023-03-12T19:01:42.936Z,3.93
2023-03-12T19:04:11.213Z,4.17
2023-03-12T19:06:50.276Z,4.13
2023-03-12T19:09:19.689Z,4.40
2023-03-12T19:11:49.176Z,4.23
2023-03-12T19:14:17.197Z,5.20
2023-03-12T19:16:51.429Z,4.80
2023-03-12T19:19:19.817Z,4.90
2023-03-12T19:21:48.087Z,4.80
2023-03-12T19:24:16.195Z,5.20
2023-03-12T19:26:43.876Z,4.90
2023-03-12T19:29:13.985Z,4.13
2023-03-12T19:31:41.807Z,4.70
2023-03-12T19:34:09.665Z,4.47
2023-03-12T19:36:37.472Z,4.17
2023-03-12T19:39:11.998Z,3.67
2023-03-12T19:41:47.195Z,4.27
2023-03-12T19:44:16.435Z,4.47
2023-03-12T19:46:44.425Z,4.30
2023-03-12T19:49:12.497Z,4.03
2023-03-12T19:51:41.427Z,4.50
2023-03-12T19:54:09.341Z,3.83
2023-03-12T19:56:37.103Z,4.37
2023-03-12T19:59:05.198Z,4.53
2023-03-12T20:01:34.237Z,5.00
2023-03-12T20:04:02.379Z,4.20
2023-03-12T20:06:30.177Z,4.53
2023-03-12T20:08:57.946Z,4.40
2023-03-12T20:11:26.087Z,4.70
2023-03-12T20:13:53.961Z,4.43
2023-03-12T20:16:22.417Z,3.93
2023-03-12T20:18:52.323Z,3.90
2023-03-12T20:21:20.215Z,4.63
2023-03-12T20:23:48.059Z,4.30
2023-03-12T20:26:16.223Z,3.93
2023-03-12T20:28:44.058Z,3.30
2023-03-12T20:31:12.615Z,4.00
2023-03-12T20:33:40.917Z,3.97
2023-03-12T20:36:12.024Z,3.87
2023-03-12T20:38:40.040Z,3.60
2023-03-12T20:41:12.239Z,4.13
2023-03-12T20:43:40.307Z,3.33
2023-03-12T20:46:08.243Z,3.70
2023-03-12T20:48:36.040Z,4.10
2023-03-12T20:51:05.248Z,3.63
2023-03-12T20:53:34.458Z,3.80
2023-03-12T20:56:02.315Z,4.27
2023-03-12T20:58:31.674Z,4.37
2023-03-12T21:01:01.008Z,3.60
2023-03-12T21:03:29.128Z,3.77
2023-03-12T21:05:57.508Z,4.20
2023-03-12T21:08:25.960Z,3.83
2023-03-12T21:10:55.286Z,3.70
2023-03-12T21:13:24.353Z,4.17
2023-03-12T21:15:53.226Z,3.97
2023-03-12T21:18:22.690Z,4.47
2023-03-12T21:20:51.750Z,4.43
2023-03-12T21:23:19.819Z,4.03
2023-03-12T21:25:48.063Z,4.13
2023-03-12T21:28:18.242Z,4.30
2023-03-12T21:30:46.226Z,4.67
2023-03-12T21:33:14.344Z,4.47
2023-03-12T21:35:44.903Z,4.30
2023-03-12T21:38:13.392Z,3.90
2023-03-12T21:40:42.782Z,4.37
2023-03-12T21:43:10.448Z,4.33
2023-03-12T21:45:40.607Z,4.20
2023-03-12T21:48:08.715Z,4.57
2023-03-12T21:50:36.428Z,4.60
2023-03-12T21:53:11.602Z,4.30
2023-03-12T21:55:54.916Z,4.10
2023-03-12T21:58:22.560Z,3.83
2023-03-12T22:00:54.471Z,4.50
2023-03-12T22:03:22.670Z,4.37
2023-03-12T22:05:53.266Z,4.47
2023-03-12T22:08:20.954Z,3.60
2023-03-12T22:10:49.472Z,3.77
2023-03-12T22:13:17.581Z,3.53
2023-03-12T22:15:47.726Z,3.87
2023-03-12T22:18:16.785Z,4.03
2023-03-12T22:20:51.028Z,4.27
2023-03-12T22:23:18.956Z,3.70
2023-03-12T22:25:47.200Z,3.90
2023-03-12T22:28:15.503Z,3.80
2023-03-12T22:30:43.215Z,3.67
2023-03-12T22:33:11.199Z,3.67
2023-03-12T22:35:45.843Z,4.13
2023-03-12T22:38:13.817Z,4.17
2023-03-12T22:40:42.130Z,3.93
2023-03-12T22:43:10.447Z,4.03
2023-03-12T22:45:38.200Z,3.83
2023-03-12T22:48:06.171Z,4.40
2023-03-12T22:50:34.313Z,4.07
2023-03-12T22:53:03.447Z,4.03
2023-03-12T22:55:31.145Z,4.30
2023-03-12T22:57:58.987Z,3.93
2023-03-12T23:00:28.288Z,4.30
2023-03-12T23:02:56.218Z,4.33
2023-03-12T23:05:24.254Z,4.10
2023-03-12T23:07:51.991Z,4.03
2023-03-12T23:10:21.215Z,4.23
2023-03-12T23:12:49.472Z,4.30
2023-03-12T23:15:17.198Z,4.40
2023-03-12T23:17:46.456Z,4.33
2023-03-12T23:20:14.430Z,3.53
2023-03-12T23:22:42.151Z,4.30
2023-03-12T23:25:10.627Z,4.37
2023-03-12T23:27:39.815Z,4.60
2023-03-12T23:30:08.477Z,4.60
2023-03-12T23:32:36.358Z,4.33
2023-03-12T23:35:04.084Z,4.37
2023-03-12T23:37:32.161Z,4.80
2023-03-12T23:40:00.108Z,4.80
2023-03-12T23:42:28.253Z,4.37
2023-03-12T23:44:57.651Z,4.70
2023-03-12T23:47:25.929Z,5.10
2023-03-12T23:49:53.784Z,4.43
2023-03-12T23:52:21.993Z,4.60
2023-03-12T23:54:50.248Z,4.73
2023-03-12T23:57:18.118Z,4.47
2023-03-12T23:59:46.791Z,4.47
